sensor_id;sensor_type;location;lat;lon;timestamp;pressure;altitude;pressure_sealevel;temperature;humidity
77041;BME280;65974;42.664;23.264;2023-06-01T00:10:00;94558.28;;;13.30;88.67
77041;BME280;65974;42.664;23.264;2023-06-01T00:12:26;94553.75;;;13.23;88.02
77041;BME280;65974;42.664;23.264;2023-06-01T00:14:52;94560.63;;;13.21;88.17
77041;BME280;65974;42.664;23.264;2023-06-01T00:17:17;94553.00;;;13.19;88.31
77041;BME280;65974;42.664;23.264;2023-06-01T00:19:45;94551.47;;;13.18;87.90
77041;BME280;65974;42.664;23.264;2023-06-01T00:22:10;94560.59;;;13.24;87.67
77041;BME280;65974;42.664;23.264;2023-06-01T00:24:36;94551.44;;;13.26;87.40
77041;BME280;65974;42.664;23.264;2023-06-01T00:27:03;94553.75;;;13.23;87.52
77041;BME280;65974;42.664;23.264;2023-06-01T00:29:29;94559.84;;;13.28;87.65
77041;BME280;65974;42.664;23.264;2023-06-01T00:31:55;94550.31;;;13.27;87.48
77041;BME280;65974;42.664;23.264;2023-06-01T00:34:21;94545.69;;;13.27;87.18
77041;BME280;65974;42.664;23.264;2023-06-01T00:36:46;94553.72;;;13.31;87.69
77041;BME280;65974;42.664;23.264;2023-06-01T00:39:12;94551.41;;;13.33;87.26
77041;BME280;65974;42.664;23.264;2023-06-01T00:41:37;94557.91;;;13.35;87.24
77041;BME280;65974;42.664;23.264;2023-06-01T00:44:03;94559.00;;;13.38;87.37
77041;BME280;65974;42.664;23.264;2023-06-01T00:46:29;94555.56;;;13.41;87.29
77041;BME280;65974;42.664;23.264;2023-06-01T00:48:55;94554.03;;;13.43;87.28
77041;BME280;65974;42.664;23.264;2023-06-01T00:51:21;94557.47;;;13.44;87.20
77041;BME280;65974;42.664;23.264;2023-06-01T00:53:48;94555.16;;;13.46;86.86
77041;BME280;65974;42.664;23.264;2023-06-01T00:56:14;94549.78;;;13.49;86.55
77041;BME280;65974;42.664;23.264;2023-06-01T00:58:40;94558.59;;;13.43;86.70
77041;BME280;65974;42.664;23.264;2023-06-01T01:01:06;94559.00;;;13.41;87.00
77041;BME280;65974;42.664;23.264;2023-06-01T01:03:33;94557.50;;;13.33;86.71
77041;BME280;65974;42.664;23.264;2023-06-01T01:11:24;94554.22;;;12.97;87.04
77041;BME280;65974;42.664;23.264;2023-06-01T01:14:05;94555.03;;;12.87;87.06
77041;BME280;65974;42.664;23.264;2023-06-01T01:16:59;94560.41;;;12.80;87.42
77041;BME280;65974;42.664;23.264;2023-06-01T01:25:24;94563.53;;;12.58;88.15
77041;BME280;65974;42.664;23.264;2023-06-01T01:30:26;94556.69;;;12.46;88.18
77041;BME280;65974;42.664;23.264;2023-06-01T01:32:53;94564.72;;;12.42;87.99
77041;BME280;65974;42.664;23.264;2023-06-01T01:35:20;94557.09;;;12.44;88.14
77041;BME280;65974;42.664;23.264;2023-06-01T01:37:51;94561.66;;;12.44;88.13
77041;BME280;65974;42.664;23.264;2023-06-01T01:40:17;94562.44;;;12.44;88.33
77041;BME280;65974;42.664;23.264;2023-06-01T01:42:43;94563.19;;;12.48;87.99
77041;BME280;65974;42.664;23.264;2023-06-01T01:45:09;94567.00;;;12.51;87.79
77041;BME280;65974;42.664;23.264;2023-06-01T01:50:27;94563.16;;;12.56;87.64
77041;BME280;65974;42.664;23.264;2023-06-01T01:52:56;94564.69;;;12.60;87.62
77041;BME280;65974;42.664;23.264;2023-06-01T01:55:23;94560.09;;;12.64;87.32
77041;BME280;65974;42.664;23.264;2023-06-01T01:57:54;94562.75;;;12.68;87.31
77041;BME280;65974;42.664;23.264;2023-06-01T02:00:21;94559.72;;;12.62;86.79
77041;BME280;65974;42.664;23.264;2023-06-01T02:02:47;94563.94;;;12.56;86.52
77041;BME280;65974;42.664;23.264;2023-06-01T02:05:12;94569.28;;;12.49;86.88
77041;BME280;65974;42.664;23.264;2023-06-01T02:07:38;94563.97;;;12.42;86.71
77041;BME280;65974;42.664;23.264;2023-06-01T02:10:03;94570.09;;;12.39;86.80
77041;BME280;65974;42.664;23.264;2023-06-01T02:12:29;94567.78;;;12.41;87.66
77041;BME280;65974;42.664;23.264;2023-06-01T02:14:55;94565.88;;;12.45;87.39
77041;BME280;65974;42.664;23.264;2023-06-01T02:17:21;94574.25;;;12.47;87.15
77041;BME280;65974;42.664;23.264;2023-06-01T02:19:47;94566.25;;;12.40;86.81
77041;BME280;65974;42.664;23.264;2023-06-01T02:22:13;94565.47;;;12.39;87.00
77041;BME280;65974;42.664;23.264;2023-06-01T02:24:39;94571.19;;;12.41;86.91
77041;BME280;65974;42.664;23.264;2023-06-01T02:27:04;94567.00;;;12.44;86.97
77041;BME280;65974;42.664;23.264;2023-06-01T02:29:30;94569.69;;;12.44;86.75
77041;BME280;65974;42.664;23.264;2023-06-01T02:31:56;94571.59;;;12.43;86.88
77041;BME280;65974;42.664;23.264;2023-06-01T02:34:21;94567.78;;;12.41;86.95
77041;BME280;65974;42.664;23.264;2023-06-01T02:36:47;94563.56;;;12.40;86.54
77041;BME280;65974;42.664;23.264;2023-06-01T02:39:13;94567.41;;;12.35;86.75
77041;BME280;65974;42.664;23.264;2023-06-01T02:41:39;94571.22;;;12.31;86.96
77041;BME280;65974;42.664;23.264;2023-06-01T02:44:04;94571.59;;;12.33;87.36
77041;BME280;65974;42.664;23.264;2023-06-01T02:46:30;94571.59;;;12.36;87.33
77041;BME280;65974;42.664;23.264;2023-06-01T02:48:55;94571.59;;;12.40;87.44
77041;BME280;65974;42.664;23.264;2023-06-01T02:51:21;94567.00;;;12.44;86.86
77041;BME280;65974;42.664;23.264;2023-06-01T02:53:46;94572.75;;;12.42;86.62
77041;BME280;65974;42.664;23.264;2023-06-01T02:56:12;94573.91;;;12.34;86.81
77041;BME280;65974;42.664;23.264;2023-06-01T02:58:38;94583.81;;;12.34;86.63
77041;BME280;65974;42.664;23.264;2023-06-01T03:01:03;94573.16;;;12.30;86.79
77041;BME280;65974;42.664;23.264;2023-06-01T03:03:28;94575.06;;;12.30;87.20
77041;BME280;65974;42.664;23.264;2023-06-01T03:05:54;94579.22;;;12.31;87.12
77041;BME280;65974;42.664;23.264;2023-06-01T03:08:21;94581.91;;;12.31;87.25
77041;BME280;65974;42.664;23.264;2023-06-01T03:10:46;94576.19;;;12.29;86.66
77041;BME280;65974;42.664;23.264;2023-06-01T03:13:12;94576.19;;;12.18;87.06
77041;BME280;65974;42.664;23.264;2023-06-01T03:15:38;94578.13;;;12.18;87.33
77041;BME280;65974;42.664;23.264;2023-06-01T03:18:04;94580.03;;;12.21;87.41
77041;BME280;65974;42.664;23.264;2023-06-01T03:20:31;94581.53;;;12.25;87.17
77041;BME280;65974;42.664;23.264;2023-06-01T03:22:56;94585.34;;;12.21;86.70
77041;BME280;65974;42.664;23.264;2023-06-01T03:25:22;94581.19;;;12.20;86.62
77041;BME280;65974;42.664;23.264;2023-06-01T03:27:47;94591.09;;;12.19;86.76
77041;BME280;65974;42.664;23.264;2023-06-01T03:30:13;94590.69;;;12.21;86.69
77041;BME280;65974;42.664;23.264;2023-06-01T03:32:42;94591.44;;;12.25;86.67
77041;BME280;65974;42.664;23.264;2023-06-01T03:35:09;94587.28;;;12.24;86.79
77041;BME280;65974;42.664;23.264;2023-06-01T03:37:35;94592.25;;;12.22;86.75
77041;BME280;65974;42.664;23.264;2023-06-01T03:40:02;94582.28;;;12.22;87.09
77041;BME280;65974;42.664;23.264;2023-06-01T03:42:42;94581.53;;;12.29;87.09
77041;BME280;65974;42.664;23.264;2023-06-01T03:45:09;94587.63;;;12.36;87.30
77041;BME280;65974;42.664;23.264;2023-06-01T03:47:35;94586.09;;;12.39;86.99
77041;BME280;65974;42.664;23.264;2023-06-01T03:50:01;94581.91;;;12.38;86.83
77041;BME280;65974;42.664;23.264;2023-06-01T03:52:28;94595.66;;;12.43;86.85
77041;BME280;65974;42.664;23.264;2023-06-01T03:54:58;94596.00;;;12.42;86.83
77041;BME280;65974;42.664;23.264;2023-06-01T03:57:24;94595.66;;;12.36;87.09
77041;BME280;65974;42.664;23.264;2023-06-01T03:59:49;94604.78;;;12.35;87.22
77041;BME280;65974;42.664;23.264;2023-06-01T04:02:16;94598.31;;;12.36;88.69
77041;BME280;65974;42.664;23.264;2023-06-01T04:04:43;94602.88;;;12.39;89.19
77041;BME280;65974;42.664;23.264;2023-06-01T04:07:12;94604.41;;;12.44;89.47
77041;BME280;65974;42.664;23.264;2023-06-01T04:09:42;94604.41;;;12.51;89.45
77041;BME280;65974;42.664;23.264;2023-06-01T04:12:09;94604.38;;;12.58;89.50
77041;BME280;65974;42.664;23.264;2023-06-01T04:14:35;94595.97;;;12.67;89.09
77041;BME280;65974;42.664;23.264;2023-06-01T04:17:01;94597.50;;;12.71;88.72
77041;BME280;65974;42.664;23.264;2023-06-01T04:19:26;94592.84;;;12.82;88.75
77041;BME280;65974;42.664;23.264;2023-06-01T04:21:51;94595.91;;;12.84;88.22
77041;BME280;65974;42.664;23.264;2023-06-01T04:24:18;94592.09;;;12.85;87.79
77041;BME280;65974;42.664;23.264;2023-06-01T04:26:44;94595.91;;;12.84;87.75
77041;BME280;65974;42.664;23.264;2023-06-01T04:29:09;94594.38;;;12.87;87.36
77041;BME280;65974;42.664;23.264;2023-06-01T04:31:37;94599.31;;;12.92;87.82
77041;BME280;65974;42.664;23.264;2023-06-01T04:34:03;94601.22;;;12.98;87.89
77041;BME280;65974;42.664;23.264;2023-06-01T04:36:32;94608.81;;;13.03;87.78
77041;BME280;65974;42.664;23.264;2023-06-01T04:38:58;94612.28;;;13.07;87.72
77041;BME280;65974;42.664;23.264;2023-06-01T04:41:24;94610.72;;;13.10;87.38
77041;BME280;65974;42.664;23.264;2023-06-01T04:43:52;94608.78;;;13.14;87.63
77041;BME280;65974;42.664;23.264;2023-06-01T04:46:22;94608.06;;;13.13;87.17
77041;BME280;65974;42.664;23.264;2023-06-01T04:48:50;94614.94;;;13.11;87.33
77041;BME280;65974;42.664;23.264;2023-06-01T04:51:20;94614.53;;;13.12;87.55
77041;BME280;65974;42.664;23.264;2023-06-01T04:53:48;94613.41;;;13.13;87.45
77041;BME280;65974;42.664;23.264;2023-06-01T04:56:24;94614.16;;;13.17;87.34
77041;BME280;65974;42.664;23.264;2023-06-01T04:58:54;94621.75;;;13.22;87.41
77041;BME280;65974;42.664;23.264;2023-06-01T05:01:24;94620.97;;;13.26;87.65
77041;BME280;65974;42.664;23.264;2023-06-01T05:03:51;94623.25;;;13.34;87.75
77041;BME280;65974;42.664;23.264;2023-06-01T05:06:19;94620.50;;;13.45;87.76
77041;BME280;65974;42.664;23.264;2023-06-01T05:08:45;94610.91;;;13.54;87.81
77041;BME280;65974;42.664;23.264;2023-06-01T05:11:11;94615.47;;;13.57;88.52
77041;BME280;65974;42.664;23.264;2023-06-01T05:13:37;94622.31;;;13.62;88.56
77041;BME280;65974;42.664;23.264;2023-06-01T05:16:04;94621.91;;;13.67;88.01
77041;BME280;65974;42.664;23.264;2023-06-01T05:18:30;94611.94;;;13.71;87.97
77041;BME280;65974;42.664;23.264;2023-06-01T05:20:56;94612.69;;;13.75;87.69
77041;BME280;65974;42.664;23.264;2023-06-01T05:23:24;94619.53;;;13.79;88.20
77041;BME280;65974;42.664;23.264;2023-06-01T05:25:49;94617.22;;;13.81;88.14
77041;BME280;65974;42.664;23.264;2023-06-01T05:28:15;94616.78;;;13.90;88.53
77041;BME280;65974;42.664;23.264;2023-06-01T05:30:40;94624.41;;;13.91;88.25
77041;BME280;65974;42.664;23.264;2023-06-01T05:33:05;94623.66;;;13.91;88.18
77041;BME280;65974;42.664;23.264;2023-06-01T05:35:31;94616.75;;;13.93;87.90
77041;BME280;65974;42.664;23.264;2023-06-01T05:37:56;94620.16;;;13.97;87.97
77041;BME280;65974;42.664;23.264;2023-06-01T05:40:22;94622.44;;;14.02;88.01
77041;BME280;65974;42.664;23.264;2023-06-01T05:42:47;94619.34;;;14.04;88.22
77041;BME280;65974;42.664;23.264;2023-06-01T05:45:12;94616.22;;;14.13;87.88
77041;BME280;65974;42.664;23.264;2023-06-01T05:47:38;94620.78;;;14.19;87.78
77041;BME280;65974;42.664;23.264;2023-06-01T05:50:04;94611.97;;;14.22;87.89
77041;BME280;65974;42.664;23.264;2023-06-01T05:52:30;94610.34;;;14.32;88.01
77041;BME280;65974;42.664;23.264;2023-06-01T05:54:57;94614.13;;;14.38;87.53
77041;BME280;65974;42.664;23.264;2023-06-01T05:57:23;94616.44;;;14.39;87.15
77041;BME280;65974;42.664;23.264;2023-06-01T05:59:48;94613.75;;;14.39;87.67
77041;BME280;65974;42.664;23.264;2023-06-01T06:02:14;94613.75;;;14.39;88.15
77041;BME280;65974;42.664;23.264;2023-06-01T06:04:40;94619.47;;;14.41;88.60
77041;BME280;65974;42.664;23.264;2023-06-01T06:07:05;94626.28;;;14.49;88.22
77041;BME280;65974;42.664;23.264;2023-06-01T06:09:31;94622.78;;;14.52;88.29
77041;BME280;65974;42.664;23.264;2023-06-01T06:11:57;94623.53;;;14.56;88.58
77041;BME280;65974;42.664;23.264;2023-06-01T06:14:23;94619.66;;;14.61;88.61
77041;BME280;65974;42.664;23.264;2023-06-01T06:16:49;94620.72;;;14.70;87.70
77041;BME280;65974;42.664;23.264;2023-06-01T06:19:14;94624.88;;;14.75;87.06
77041;BME280;65974;42.664;23.264;2023-06-01T06:21:43;94619.06;;;14.80;86.53
77041;BME280;65974;42.664;23.264;2023-06-01T06:24:08;94621.31;;;14.85;86.31
77041;BME280;65974;42.664;23.264;2023-06-01T06:26:34;94616.22;;;14.98;85.28
77041;BME280;65974;42.664;23.264;2023-06-01T06:28:59;94619.59;;;15.05;85.36
77041;BME280;65974;42.664;23.264;2023-06-01T06:31:25;94618.75;;;15.12;84.89
77041;BME280;65974;42.664;23.264;2023-06-01T06:33:51;94623.84;;;15.33;83.80
77041;BME280;65974;42.664;23.264;2023-06-01T06:36:16;94621.97;;;15.30;83.84
77041;BME280;65974;42.664;23.264;2023-06-01T06:38:42;94619.88;;;15.44;83.17
77041;BME280;65974;42.664;23.264;2023-06-01T06:41:08;94625.47;;;15.57;83.24
77041;BME280;65974;42.664;23.264;2023-06-01T06:43:33;94624.22;;;15.65;82.04
77041;BME280;65974;42.664;23.264;2023-06-01T06:45:59;94621.06;;;15.70;81.54
77041;BME280;65974;42.664;23.264;2023-06-01T06:48:24;94620.22;;;15.77;81.81
77041;BME280;65974;42.664;23.264;2023-06-01T06:50:50;94619.00;;;15.81;82.06
77041;BME280;65974;42.664;23.264;2023-06-01T06:53:16;94615.09;;;15.86;81.99
77041;BME280;65974;42.664;23.264;2023-06-01T06:55:42;94609.63;;;15.93;81.36
77041;BME280;65974;42.664;23.264;2023-06-01T06:58:08;94620.22;;;16.03;81.61
77041;BME280;65974;42.664;23.264;2023-06-01T07:00:36;94618.09;;;16.14;82.09
77041;BME280;65974;42.664;23.264;2023-06-01T07:03:01;94624.91;;;16.22;81.82
77041;BME280;65974;42.664;23.264;2023-06-01T07:05:27;94623.97;;;16.33;80.52
77041;BME280;65974;42.664;23.264;2023-06-01T07:07:52;94620.00;;;16.41;80.38
77041;BME280;65974;42.664;23.264;2023-06-01T07:10:18;94607.59;;;16.47;80.20
77041;BME280;65974;42.664;23.264;2023-06-01T07:12:43;94615.22;;;16.52;80.00
77041;BME280;65974;42.664;23.264;2023-06-01T07:15:09;94605.88;;;16.60;79.81
77041;BME280;65974;42.664;23.264;2023-06-01T07:17:34;94612.41;;;16.82;79.65
77041;BME280;65974;42.664;23.264;2023-06-01T07:20:02;94610.75;;;16.88;78.52
77041;BME280;65974;42.664;23.264;2023-06-01T07:22:32;94612.59;;;16.91;78.96
77041;BME280;65974;42.664;23.264;2023-06-01T07:24:57;94601.81;;;16.91;77.10
77041;BME280;65974;42.664;23.264;2023-06-01T07:27:22;94606.75;;;16.96;77.42
77041;BME280;65974;42.664;23.264;2023-06-01T07:29:48;94608.63;;;16.99;77.05
77041;BME280;65974;42.664;23.264;2023-06-01T07:32:19;94609.66;;;17.05;76.38
77041;BME280;65974;42.664;23.264;2023-06-01T07:34:45;94605.28;;;17.11;76.55
77041;BME280;65974;42.664;23.264;2023-06-01T07:37:10;94606.41;;;17.14;76.67
77041;BME280;65974;42.664;23.264;2023-06-01T07:39:35;94602.13;;;17.16;77.20
77041;BME280;65974;42.664;23.264;2023-06-01T07:42:01;94600.47;;;17.22;77.36
77041;BME280;65974;42.664;23.264;2023-06-01T07:44:26;94601.16;;;17.26;76.59
77041;BME280;65974;42.664;23.264;2023-06-01T07:46:53;94594.09;;;17.32;76.80
77041;BME280;65974;42.664;23.264;2023-06-01T07:49:18;94589.81;;;17.35;76.02
77041;BME280;65974;42.664;23.264;2023-06-01T07:51:43;94590.50;;;17.39;75.83
77041;BME280;65974;42.664;23.264;2023-06-01T07:54:09;94587.81;;;17.39;75.74
77041;BME280;65974;42.664;23.264;2023-06-01T07:56:35;94579.59;;;17.46;75.41
77041;BME280;65974;42.664;23.264;2023-06-01T07:59:01;94585.72;;;17.46;76.14
77041;BME280;65974;42.664;23.264;2023-06-01T08:01:27;94583.00;;;17.50;76.09
77041;BME280;65974;42.664;23.264;2023-06-01T08:03:52;94579.31;;;17.60;75.21
77041;BME280;65974;42.664;23.264;2023-06-01T08:06:18;94586.00;;;17.71;76.04
77041;BME280;65974;42.664;23.264;2023-06-01T08:08:47;94580.41;;;17.78;75.94
77041;BME280;65974;42.664;23.264;2023-06-01T08:11:15;94591.06;;;17.86;75.18
77041;BME280;65974;42.664;23.264;2023-06-01T08:13:40;94587.69;;;17.98;74.54
77041;BME280;65974;42.664;23.264;2023-06-01T08:16:06;94588.34;;;18.02;75.11
77041;BME280;65974;42.664;23.264;2023-06-01T08:18:32;94574.91;;;18.18;72.50
77041;BME280;65974;42.664;23.264;2023-06-01T08:20:58;94578.41;;;18.15;72.41
77041;BME280;65974;42.664;23.264;2023-06-01T08:23:26;94578.69;;;18.20;74.02
77041;BME280;65974;42.664;23.264;2023-06-01T08:25:51;94570.16;;;18.22;73.94
77041;BME280;65974;42.664;23.264;2023-06-01T08:28:17;94574.38;;;18.39;74.68
77041;BME280;65974;42.664;23.264;2023-06-01T08:30:43;94568.72;;;18.49;74.64
77041;BME280;65974;42.664;23.264;2023-06-01T08:33:08;94563.06;;;18.60;74.11
77041;BME280;65974;42.664;23.264;2023-06-01T08:35:34;94558.22;;;18.68;72.03
77041;BME280;65974;42.664;23.264;2023-06-01T08:38:02;94564.53;;;18.77;73.26
77041;BME280;65974;42.664;23.264;2023-06-01T08:40:31;94562.16;;;18.79;72.95
77041;BME280;65974;42.664;23.264;2023-06-01T08:43:12;94558.66;;;18.95;72.68
77041;BME280;65974;42.664;23.264;2023-06-01T08:45:40;94558.59;;;19.11;69.82
77041;BME280;65974;42.664;23.264;2023-06-01T08:48:08;94550.28;;;19.05;70.62
77041;BME280;65974;42.664;23.264;2023-06-01T08:50:36;94549.19;;;19.03;70.56
77041;BME280;65974;42.664;23.264;2023-06-01T08:53:03;94548.75;;;19.04;71.38
77041;BME280;65974;42.664;23.264;2023-06-01T08:55:29;94549.50;;;19.05;70.81
77041;BME280;65974;42.664;23.264;2023-06-01T08:57:55;94541.63;;;19.10;70.58
77041;BME280;65974;42.664;23.264;2023-06-01T09:00:21;94541.13;;;19.15;71.93
77041;BME280;65974;42.664;23.264;2023-06-01T09:02:48;94536.59;;;19.25;71.65
77041;BME280;65974;42.664;23.264;2023-06-01T09:05:13;94539.09;;;19.32;69.44
77041;BME280;65974;42.664;23.264;2023-06-01T09:07:40;94537.31;;;19.42;68.40
77041;BME280;65974;42.664;23.264;2023-06-01T09:10:06;94530.69;;;19.55;68.04
77041;BME280;65974;42.664;23.264;2023-06-01T09:12:31;94531.59;;;19.65;67.67
77041;BME280;65974;42.664;23.264;2023-06-01T09:15:15;94539.16;;;19.70;67.26
77041;BME280;65974;42.664;23.264;2023-06-01T09:18:05;94537.19;;;19.70;65.84
77041;BME280;65974;42.664;23.264;2023-06-01T09:20:30;94532.66;;;19.80;66.31
77041;BME280;65974;42.664;23.264;2023-06-01T09:22:57;94528.00;;;19.93;65.44
77041;BME280;65974;42.664;23.264;2023-06-01T09:25:31;94530.47;;;20.00;65.21
77041;BME280;65974;42.664;23.264;2023-06-01T09:27:58;94533.59;;;19.98;64.61
77041;BME280;65974;42.664;23.264;2023-06-01T09:30:26;94536.75;;;19.97;65.24
77041;BME280;65974;42.664;23.264;2023-06-01T09:33:16;94518.91;;;19.99;64.39
77041;BME280;65974;42.664;23.264;2023-06-01T09:35:46;94523.13;;;20.00;64.60
77041;BME280;65974;42.664;23.264;2023-06-01T09:38:20;94525.38;;;20.02;65.07
77041;BME280;65974;42.664;23.264;2023-06-01T09:40:56;94515.00;;;20.00;64.37
77041;BME280;65974;42.664;23.264;2023-06-01T09:43:23;94515.44;;;19.99;64.52
77041;BME280;65974;42.664;23.264;2023-06-01T09:48:34;94515.13;;;19.97;65.27
77041;BME280;65974;42.664;23.264;2023-06-01T09:50:59;94507.66;;;20.01;65.46
77041;BME280;65974;42.664;23.264;2023-06-01T09:53:25;94508.84;;;20.00;65.44
77041;BME280;65974;42.664;23.264;2023-06-01T09:55:59;94497.78;;;20.07;65.29
77041;BME280;65974;42.664;23.264;2023-06-01T09:58:25;94502.22;;;20.13;63.72
77041;BME280;65974;42.664;23.264;2023-06-01T10:00:52;94513.03;;;20.13;61.14
77041;BME280;65974;42.664;23.264;2023-06-01T10:03:20;94505.16;;;20.06;61.69
77041;BME280;65974;42.664;23.264;2023-06-01T10:05:47;94501.94;;;19.99;60.71
77041;BME280;65974;42.664;23.264;2023-06-01T10:08:14;94497.06;;;19.94;58.18
77041;BME280;65974;42.664;23.264;2023-06-01T10:10:43;94492.63;;;19.87;57.55
77041;BME280;65974;42.664;23.264;2023-06-01T10:13:10;94496.03;;;19.54;58.28
77041;BME280;65974;42.664;23.264;2023-06-01T10:15:36;94490.19;;;19.43;60.65
77041;BME280;65974;42.664;23.264;2023-06-01T10:18:02;94494.69;;;19.33;62.63
77041;BME280;65974;42.664;23.264;2023-06-01T10:20:29;94497.59;;;19.26;62.91
77041;BME280;65974;42.664;23.264;2023-06-01T10:22:57;94498.81;;;19.25;63.38
77041;BME280;65974;42.664;23.264;2023-06-01T10:25:23;94504.28;;;19.21;66.04
77041;BME280;65974;42.664;23.264;2023-06-01T10:28:02;94513.13;;;19.09;66.93
77041;BME280;65974;42.664;23.264;2023-06-01T10:30:29;94508.88;;;18.96;69.55
77041;BME280;65974;42.664;23.264;2023-06-01T10:32:55;94503.50;;;18.96;70.53
77041;BME280;65974;42.664;23.264;2023-06-01T10:40:43;94508.13;;;18.95;69.01
77041;BME280;65974;42.664;23.264;2023-06-01T10:46:43;94489.41;;;18.76;69.66
77041;BME280;65974;42.664;23.264;2023-06-01T10:49:09;94492.09;;;18.63;71.22
77041;BME280;65974;42.664;23.264;2023-06-01T10:51:34;94482.00;;;18.51;72.27
77041;BME280;65974;42.664;23.264;2023-06-01T10:57:22;94470.28;;;18.41;72.54
77041;BME280;65974;42.664;23.264;2023-06-01T11:00:22;94463.38;;;18.40;76.11
77041;BME280;65974;42.664;23.264;2023-06-01T11:13:20;94461.44;;;18.41;71.64
77041;BME280;65974;42.664;23.264;2023-06-01T11:18:53;94448.47;;;18.65;70.41
77041;BME280;65974;42.664;23.264;2023-06-01T11:21:29;94439.44;;;18.71;68.58
77041;BME280;65974;42.664;23.264;2023-06-01T11:23:59;94435.53;;;18.72;64.41
77041;BME280;65974;42.664;23.264;2023-06-01T11:26:34;94435.66;;;18.69;64.45
77041;BME280;65974;42.664;23.264;2023-06-01T11:29:09;94430.91;;;18.73;70.12
77041;BME280;65974;42.664;23.264;2023-06-01T11:31:41;94427.13;;;18.83;68.29
77041;BME280;65974;42.664;23.264;2023-06-01T11:34:09;94413.13;;;18.88;67.97
77041;BME280;65974;42.664;23.264;2023-06-01T11:36:40;94423.28;;;18.96;71.20
77041;BME280;65974;42.664;23.264;2023-06-01T11:39:25;94432.03;;;19.13;70.78
77041;BME280;65974;42.664;23.264;2023-06-01T11:42:05;94429.22;;;19.29;69.83
77041;BME280;65974;42.664;23.264;2023-06-01T11:44:32;94434.09;;;19.34;68.20
77041;BME280;65974;42.664;23.264;2023-06-01T11:46:57;94444.50;;;19.36;65.86
77041;BME280;65974;42.664;23.264;2023-06-01T11:49:24;94452.34;;;19.30;65.59
77041;BME280;65974;42.664;23.264;2023-06-01T11:51:50;94448.34;;;19.09;62.22
77041;BME280;65974;42.664;23.264;2023-06-01T11:54:21;94459.63;;;18.79;61.03
77041;BME280;65974;42.664;23.264;2023-06-01T11:56:47;94463.25;;;18.60;62.12
77041;BME280;65974;42.664;23.264;2023-06-01T11:59:12;94473.06;;;18.54;62.72
77041;BME280;65974;42.664;23.264;2023-06-01T12:01:43;94458.03;;;18.53;61.79
77041;BME280;65974;42.664;23.264;2023-06-01T12:04:17;94464.44;;;18.59;63.72
77041;BME280;65974;42.664;23.264;2023-06-01T12:06:43;94467.78;;;18.50;66.05
77041;BME280;65974;42.664;23.264;2023-06-01T12:09:10;94463.28;;;18.15;67.79
77041;BME280;65974;42.664;23.264;2023-06-01T12:11:37;94463.41;;;17.79;70.33
77041;BME280;65974;42.664;23.264;2023-06-01T12:14:03;94455.88;;;17.39;70.81
77041;BME280;65974;42.664;23.264;2023-06-01T12:19:44;94435.78;;;16.91;70.35
77041;BME280;65974;42.664;23.264;2023-06-01T12:22:09;94436.69;;;16.85;71.05
77041;BME280;65974;42.664;23.264;2023-06-01T12:24:35;94432.84;;;16.86;70.83
77041;BME280;65974;42.664;23.264;2023-06-01T12:27:02;94439.38;;;16.85;70.76
77041;BME280;65974;42.664;23.264;2023-06-01T12:32:05;94420.22;;;16.83;73.63
77041;BME280;65974;42.664;23.264;2023-06-01T12:34:31;94414.84;;;16.83;73.94
77041;BME280;65974;42.664;23.264;2023-06-01T12:36:56;94411.66;;;16.88;73.74
77041;BME280;65974;42.664;23.264;2023-06-01T12:39:34;94408.88;;;16.91;72.47
77041;BME280;65974;42.664;23.264;2023-06-01T12:42:03;94399.31;;;16.90;71.88
77041;BME280;65974;42.664;23.264;2023-06-01T12:44:32;94391.75;;;17.01;71.95
77041;BME280;65974;42.664;23.264;2023-06-01T12:47:00;94387.72;;;17.10;71.60
77041;BME280;65974;42.664;23.264;2023-06-01T12:49:27;94381.78;;;17.18;71.40
77041;BME280;65974;42.664;23.264;2023-06-01T12:51:53;94376.88;;;17.29;71.99
77041;BME280;65974;42.664;23.264;2023-06-01T12:54:19;94375.88;;;17.39;72.60
77041;BME280;65974;42.664;23.264;2023-06-01T12:56:47;94370.16;;;17.53;73.27
77041;BME280;65974;42.664;23.264;2023-06-01T12:59:13;94370.56;;;17.68;73.21
77041;BME280;65974;42.664;23.264;2023-06-01T13:01:39;94364.63;;;17.89;72.46
77041;BME280;65974;42.664;23.264;2023-06-01T13:04:04;94362.53;;;18.09;72.41
77041;BME280;65974;42.664;23.264;2023-06-01T13:06:30;94351.28;;;18.27;73.01
77041;BME280;65974;42.664;23.264;2023-06-01T13:08:55;94354.03;;;18.52;72.47
77041;BME280;65974;42.664;23.264;2023-06-01T13:11:21;94348.66;;;18.77;71.88
77041;BME280;65974;42.664;23.264;2023-06-01T13:13:50;94344.16;;;18.99;69.44
77041;BME280;65974;42.664;23.264;2023-06-01T13:16:15;94336.09;;;19.21;66.95
77041;BME280;65974;42.664;23.264;2023-06-01T13:18:41;94329.94;;;19.46;67.77
77041;BME280;65974;42.664;23.264;2023-06-01T13:21:07;94330.38;;;19.78;64.99
77041;BME280;65974;42.664;23.264;2023-06-01T13:23:32;94325.53;;;20.29;61.64
77041;BME280;65974;42.664;23.264;2023-06-01T13:25:58;94322.16;;;20.77;58.77
77041;BME280;65974;42.664;23.264;2023-06-01T13:28:24;94327.47;;;21.30;58.31
77041;BME280;65974;42.664;23.264;2023-06-01T13:30:49;94312.03;;;21.76;55.72
77041;BME280;65974;42.664;23.264;2023-06-01T13:33:15;94299.97;;;22.22;55.59
77041;BME280;65974;42.664;23.264;2023-06-01T13:35:41;94301.25;;;22.63;53.88
77041;BME280;65974;42.664;23.264;2023-06-01T13:38:06;94300.81;;;22.55;50.71
77041;BME280;65974;42.664;23.264;2023-06-01T13:40:33;94295.13;;;22.26;51.76
77041;BME280;65974;42.664;23.264;2023-06-01T13:42:58;94297.13;;;21.80;52.56
77041;BME280;65974;42.664;23.264;2023-06-01T13:45:24;94299.47;;;21.24;52.14
77041;BME280;65974;42.664;23.264;2023-06-01T13:47:49;94296.66;;;20.97;50.66
77041;BME280;65974;42.664;23.264;2023-06-01T13:50:15;94293.88;;;20.69;51.66